sensor_id;sensor_type;location;lat;lon;timestamp;temperature;humidity
3770;DHT22;1900;48.890;9.190;2023-03-01T00:00:40;7.00;43.30
3770;DHT22;1900;48.890;9.190;2023-03-01T00:03:06;6.90;43.30
3770;DHT22;1900;48.890;9.190;2023-03-01T00:05:32;6.90;43.30
3770;DHT22;1900;48.890;9.190;2023-03-01T00:07:58;6.90;43.20
3770;DHT22;1900;48.890;9.190;2023-03-01T00:10:24;6.90;43.20
3770;DHT22;1900;48.890;9.190;2023-03-01T00:12:49;6.90;43.30
3770;DHT22;1900;48.890;9.190;2023-03-01T00:15:15;6.80;43.20
3770;DHT22;1900;48.890;9.190;2023-03-01T00:17:41;6.80;43.20
3770;DHT22;1900;48.890;9.190;2023-03-01T00:20:07;6.80;43.20
3770;DHT22;1900;48.890;9.190;2023-03-01T00:22:36;6.80;43.20
3770;DHT22;1900;48.890;9.190;2023-03-01T00:25:02;6.80;43.20
3770;DHT22;1900;48.890;9.190;2023-03-01T00:27:27;6.70;43.10
3770;DHT22;1900;48.890;9.190;2023-03-01T00:29:53;6.70;43.20
3770;DHT22;1900;48.890;9.190;2023-03-01T00:32:19;6.70;43.20
3770;DHT22;1900;48.890;9.190;2023-03-01T00:34:44;6.70;43.20
3770;DHT22;1900;48.890;9.190;2023-03-01T00:37:23;6.70;43.20
3770;DHT22;1900;48.890;9.190;2023-03-01T00:39:49;6.70;43.20
3770;DHT22;1900;48.890;9.190;2023-03-01T00:42:16;6.70;43.80
3770;DHT22;1900;48.890;9.190;2023-03-01T00:44:41;6.70;43.30
3770;DHT22;1900;48.890;9.190;2023-03-01T00:47:07;6.60;43.20
3770;DHT22;1900;48.890;9.190;2023-03-01T00:49:33;6.60;43.20
3770;DHT22;1900;48.890;9.190;2023-03-01T00:51:59;6.60;43.20
3770;DHT22;1900;48.890;9.190;2023-03-01T00:54:24;6.60;43.20
3770;DHT22;1900;48.890;9.190;2023-03-01T00:56:50;6.60;43.20
3770;DHT22;1900;48.890;9.190;2023-03-01T00:59:16;6.60;43.20
3770;DHT22;1900;48.890;9.190;2023-03-01T01:01:41;6.60;43.20
3770;DHT22;1900;48.890;9.190;2023-03-01T01:04:10;6.60;43.20
3770;DHT22;1900;48.890;9.190;2023-03-01T01:06:39;6.60;43.20
3770;DHT22;1900;48.890;9.190;2023-03-01T01:09:10;6.60;43.20
3770;DHT22;1900;48.890;9.190;2023-03-01T01:11:46;6.60;43.20
3770;DHT22;1900;48.890;9.190;2023-03-01T01:14:13;6.50;43.20
3770;DHT22;1900;48.890;9.190;2023-03-01T01:16:39;6.50;43.20
3770;DHT22;1900;48.890;9.190;2023-03-01T01:19:05;6.50;43.20
3770;DHT22;1900;48.890;9.190;2023-03-01T01:21:30;6.50;43.20
3770;DHT22;1900;48.890;9.190;2023-03-01T01:23:56;6.50;43.20
3770;DHT22;1900;48.890;9.190;2023-03-01T01:26:26;6.50;43.20
3770;DHT22;1900;48.890;9.190;2023-03-01T01:28:52;6.50;43.20
3770;DHT22;1900;48.890;9.190;2023-03-01T01:31:19;6.40;43.10
3770;DHT22;1900;48.890;9.190;2023-03-01T01:33:45;6.50;43.30
3770;DHT22;1900;48.890;9.190;2023-03-01T01:36:11;6.50;43.30
3770;DHT22;1900;48.890;9.190;2023-03-01T01:38:38;6.50;43.30
3770;DHT22;1900;48.890;9.190;2023-03-01T01:41:07;6.50;43.30
3770;DHT22;1900;48.890;9.190;2023-03-01T01:43:35;6.50;43.30
3770;DHT22;1900;48.890;9.190;2023-03-01T01:46:05;6.50;43.30
3770;DHT22;1900;48.890;9.190;2023-03-01T01:48:39;6.50;43.30
3770;DHT22;1900;48.890;9.190;2023-03-01T01:51:09;6.50;43.30
3770;DHT22;1900;48.890;9.190;2023-03-01T01:53:37;6.50;43.40
3770;DHT22;1900;48.890;9.190;2023-03-01T01:56:07;6.50;43.40
3770;DHT22;1900;48.890;9.190;2023-03-01T01:58:34;6.50;43.40
3770;DHT22;1900;48.890;9.190;2023-03-01T02:01:01;6.50;43.40
3770;DHT22;1900;48.890;9.190;2023-03-01T02:03:31;6.40;43.30
3770;DHT22;1900;48.890;9.190;2023-03-01T02:08:36;6.50;43.40
3770;DHT22;1900;48.890;9.190;2023-03-01T02:11:03;6.40;43.30
3770;DHT22;1900;48.890;9.190;2023-03-01T02:13:31;6.40;43.30
3770;DHT22;1900;48.890;9.190;2023-03-01T02:15:58;6.40;43.20
3770;DHT22;1900;48.890;9.190;2023-03-01T02:18:24;6.40;43.30
3770;DHT22;1900;48.890;9.190;2023-03-01T02:24:00;6.40;43.30
3770;DHT22;1900;48.890;9.190;2023-03-01T02:26:37;6.40;43.30
3770;DHT22;1900;48.890;9.190;2023-03-01T02:29:06;6.40;43.30
3770;DHT22;1900;48.890;9.190;2023-03-01T02:31:32;6.40;43.40
3770;DHT22;1900;48.890;9.190;2023-03-01T02:34:16;6.40;43.40
3770;DHT22;1900;48.890;9.190;2023-03-01T02:36:49;6.40;43.30
3770;DHT22;1900;48.890;9.190;2023-03-01T02:39:22;6.40;43.40
3770;DHT22;1900;48.890;9.190;2023-03-01T02:41:52;6.40;43.40
3770;DHT22;1900;48.890;9.190;2023-03-01T02:44:18;6.40;43.40
3770;DHT22;1900;48.890;9.190;2023-03-01T02:46:53;6.40;43.50
3770;DHT22;1900;48.890;9.190;2023-03-01T02:49:25;6.40;43.40
3770;DHT22;1900;48.890;9.190;2023-03-01T02:52:20;6.40;43.30
3770;DHT22;1900;48.890;9.190;2023-03-01T02:55:11;6.40;43.30
3770;DHT22;1900;48.890;9.190;2023-03-01T02:57:40;6.40;43.40
3770;DHT22;1900;48.890;9.190;2023-03-01T03:00:11;6.30;43.30
3770;DHT22;1900;48.890;9.190;2023-03-01T03:02:45;6.30;43.40
3770;DHT22;1900;48.890;9.190;2023-03-01T03:05:18;6.30;43.40
3770;DHT22;1900;48.890;9.190;2023-03-01T03:07:46;6.30;43.40
3770;DHT22;1900;48.890;9.190;2023-03-01T03:10:16;6.40;43.60
3770;DHT22;1900;48.890;9.190;2023-03-01T03:12:42;6.40;43.60
3770;DHT22;1900;48.890;9.190;2023-03-01T03:15:10;6.40;43.60
3770;DHT22;1900;48.890;9.190;2023-03-01T03:17:40;6.40;43.60
3770;DHT22;1900;48.890;9.190;2023-03-01T03:20:07;6.40;43.60
3770;DHT22;1900;48.890;9.190;2023-03-01T03:22:38;6.40;43.60
3770;DHT22;1900;48.890;9.190;2023-03-01T03:25:06;6.40;43.60
3770;DHT22;1900;48.890;9.190;2023-03-01T03:27:36;6.50;43.80
3770;DHT22;1900;48.890;9.190;2023-03-01T03:30:04;6.50;43.80
3770;DHT22;1900;48.890;9.190;2023-03-01T03:32:35;6.50;43.70
3770;DHT22;1900;48.890;9.190;2023-03-01T03:35:02;6.50;43.80
3770;DHT22;1900;48.890;9.190;2023-03-01T03:37:34;6.50;43.80
3770;DHT22;1900;48.890;9.190;2023-03-01T03:40:18;6.50;43.80
3770;DHT22;1900;48.890;9.190;2023-03-01T03:42:44;6.50;43.80
3770;DHT22;1900;48.890;9.190;2023-03-01T03:45:09;6.50;43.80
3770;DHT22;1900;48.890;9.190;2023-03-01T03:47:35;6.60;43.80
3770;DHT22;1900;48.890;9.190;2023-03-01T03:50:01;6.60;43.80
3770;DHT22;1900;48.890;9.190;2023-03-01T03:52:26;6.60;43.80
3770;DHT22;1900;48.890;9.190;2023-03-01T03:54:52;6.60;43.80
3770;DHT22;1900;48.890;9.190;2023-03-01T03:57:17;6.60;43.90
3770;DHT22;1900;48.890;9.190;2023-03-01T03:59:43;6.70;44.00
3770;DHT22;1900;48.890;9.190;2023-03-01T04:02:09;6.70;44.00
3770;DHT22;1900;48.890;9.190;2023-03-01T04:04:37;6.70;44.00
3770;DHT22;1900;48.890;9.190;2023-03-01T04:07:02;6.70;44.00
3770;DHT22;1900;48.890;9.190;2023-03-01T04:09:28;6.70;44.00
3770;DHT22;1900;48.890;9.190;2023-03-01T04:11:55;6.70;44.00
3770;DHT22;1900;48.890;9.190;2023-03-01T04:14:21;6.70;44.00
3770;DHT22;1900;48.890;9.190;2023-03-01T04:16:47;6.70;44.00
3770;DHT22;1900;48.890;9.190;2023-03-01T04:19:12;6.70;43.90
3770;DHT22;1900;48.890;9.190;2023-03-01T04:21:40;6.70;44.00
3770;DHT22;1900;48.890;9.190;2023-03-01T04:24:06;6.70;44.00
3770;DHT22;1900;48.890;9.190;2023-03-01T04:26:32;6.70;44.00
3770;DHT22;1900;48.890;9.190;2023-03-01T04:28:57;6.70;44.00
3770;DHT22;1900;48.890;9.190;2023-03-01T04:31:23;6.70;44.00
3770;DHT22;1900;48.890;9.190;2023-03-01T04:33:51;6.80;44.10
3770;DHT22;1900;48.890;9.190;2023-03-01T04:36:18;6.80;44.10
3770;DHT22;1900;48.890;9.190;2023-03-01T04:38:44;6.80;44.10
3770;DHT22;1900;48.890;9.190;2023-03-01T04:41:15;6.80;44.10
3770;DHT22;1900;48.890;9.190;2023-03-01T04:43:41;6.80;44.10
3770;DHT22;1900;48.890;9.190;2023-03-01T04:46:09;6.80;44.10
3770;DHT22;1900;48.890;9.190;2023-03-01T04:48:37;6.80;44.10
3770;DHT22;1900;48.890;9.190;2023-03-01T04:51:04;6.80;44.10
3770;DHT22;1900;48.890;9.190;2023-03-01T04:53:31;6.80;44.10
3770;DHT22;1900;48.890;9.190;2023-03-01T04:55:58;6.80;44.10
3770;DHT22;1900;48.890;9.190;2023-03-01T04:58:25;6.80;44.10
3770;DHT22;1900;48.890;9.190;2023-03-01T05:00:52;6.80;44.20
3770;DHT22;1900;48.890;9.190;2023-03-01T05:03:18;6.80;44.10
3770;DHT22;1900;48.890;9.190;2023-03-01T05:05:46;6.80;44.10
3770;DHT22;1900;48.890;9.190;2023-03-01T05:08:13;6.90;44.20
3770;DHT22;1900;48.890;9.190;2023-03-01T05:10:44;6.90;44.20
3770;DHT22;1900;48.890;9.190;2023-03-01T05:13:12;6.90;44.20
3770;DHT22;1900;48.890;9.190;2023-03-01T05:15:39;6.90;44.20
3770;DHT22;1900;48.890;9.190;2023-03-01T05:18:05;6.90;44.20
3770;DHT22;1900;48.890;9.190;2023-03-01T05:20:37;6.90;44.80
3770;DHT22;1900;48.890;9.190;2023-03-01T05:23:03;6.90;44.20
3770;DHT22;1900;48.890;9.190;2023-03-01T05:25:32;6.90;44.20
3770;DHT22;1900;48.890;9.190;2023-03-01T05:28:02;6.90;44.20
3770;DHT22;1900;48.890;9.190;2023-03-01T05:30:34;6.90;44.30
3770;DHT22;1900;48.890;9.190;2023-03-01T05:33:00;6.90;44.20
3770;DHT22;1900;48.890;9.190;2023-03-01T05:35:26;6.90;44.10
3770;DHT22;1900;48.890;9.190;2023-03-01T05:37:52;6.90;44.10
3770;DHT22;1900;48.890;9.190;2023-03-01T05:40:22;6.90;44.00
3770;DHT22;1900;48.890;9.190;2023-03-01T05:42:52;6.90;44.00
3770;DHT22;1900;48.890;9.190;2023-03-01T05:45:20;6.80;44.00
3770;DHT22;1900;48.890;9.190;2023-03-01T05:47:47;6.80;44.00
3770;DHT22;1900;48.890;9.190;2023-03-01T05:50:24;6.80;44.00
3770;DHT22;1900;48.890;9.190;2023-03-01T05:53:03;6.80;44.00
3770;DHT22;1900;48.890;9.190;2023-03-01T05:55:31;6.80;44.10
3770;DHT22;1900;48.890;9.190;2023-03-01T05:58:05;6.80;44.10
3770;DHT22;1900;48.890;9.190;2023-03-01T06:00:32;6.80;44.10
3770;DHT22;1900;48.890;9.190;2023-03-01T06:02:59;6.80;44.10
3770;DHT22;1900;48.890;9.190;2023-03-01T06:05:25;6.80;44.20
3770;DHT22;1900;48.890;9.190;2023-03-01T06:07:51;6.80;44.20
3770;DHT22;1900;48.890;9.190;2023-03-01T06:10:19;6.80;44.10
3770;DHT22;1900;48.890;9.190;2023-03-01T06:12:45;6.80;44.10
3770;DHT22;1900;48.890;9.190;2023-03-01T06:15:13;6.80;44.00
3770;DHT22;1900;48.890;9.190;2023-03-01T06:17:41;6.80;44.00
3770;DHT22;1900;48.890;9.190;2023-03-01T06:20:11;6.80;44.10
3770;DHT22;1900;48.890;9.190;2023-03-01T06:22:37;6.70;44.00
3770;DHT22;1900;48.890;9.190;2023-03-01T06:25:03;6.70;44.00
3770;DHT22;1900;48.890;9.190;2023-03-01T06:27:29;6.70;44.00
3770;DHT22;1900;48.890;9.190;2023-03-01T06:29:55;6.70;44.00
3770;DHT22;1900;48.890;9.190;2023-03-01T06:32:20;6.70;43.90
3770;DHT22;1900;48.890;9.190;2023-03-01T06:34:46;6.70;43.90
3770;DHT22;1900;48.890;9.190;2023-03-01T06:37:12;6.70;44.00
3770;DHT22;1900;48.890;9.190;2023-03-01T06:39:37;6.70;44.10
3770;DHT22;1900;48.890;9.190;2023-03-01T06:42:04;6.70;44.10
3770;DHT22;1900;48.890;9.190;2023-03-01T06:44:30;6.70;44.00
3770;DHT22;1900;48.890;9.190;2023-03-01T06:46:56;6.70;44.00
3770;DHT22;1900;48.890;9.190;2023-03-01T06:49:22;6.60;43.80
3770;DHT22;1900;48.890;9.190;2023-03-01T06:51:47;6.60;43.80
3770;DHT22;1900;48.890;9.190;2023-03-01T06:54:13;6.60;43.90
3770;DHT22;1900;48.890;9.190;2023-03-01T06:56:39;6.60;43.90
3770;DHT22;1900;48.890;9.190;2023-03-01T06:59:04;6.60;44.00
3770;DHT22;1900;48.890;9.190;2023-03-01T07:01:31;6.60;44.60
3770;DHT22;1900;48.890;9.190;2023-03-01T07:03:56;6.60;44.00
3770;DHT22;1900;48.890;9.190;2023-03-01T07:06:22;6.60;44.00
3770;DHT22;1900;48.890;9.190;2023-03-01T07:08:48;6.60;44.00
3770;DHT22;1900;48.890;9.190;2023-03-01T07:11:14;6.60;44.00
3770;DHT22;1900;48.890;9.190;2023-03-01T07:13:40;6.60;44.10
3770;DHT22;1900;48.890;9.190;2023-03-01T07:16:06;6.60;44.00
3770;DHT22;1900;48.890;9.190;2023-03-01T07:18:32;6.60;44.00
3770;DHT22;1900;48.890;9.190;2023-03-01T07:20:58;6.60;44.10
3770;DHT22;1900;48.890;9.190;2023-03-01T07:23:23;6.60;44.00
3770;DHT22;1900;48.890;9.190;2023-03-01T07:25:53;6.60;44.00
3770;DHT22;1900;48.890;9.190;2023-03-01T07:28:22;6.60;43.90
3770;DHT22;1900;48.890;9.190;2023-03-01T07:30:48;6.60;43.90
3770;DHT22;1900;48.890;9.190;2023-03-01T07:33:14;6.50;43.80
3770;DHT22;1900;48.890;9.190;2023-03-01T07:35:40;6.50;43.90
3770;DHT22;1900;48.890;9.190;2023-03-01T07:38:05;6.60;44.00
3770;DHT22;1900;48.890;9.190;2023-03-01T07:40:31;6.50;43.90
3770;DHT22;1900;48.890;9.190;2023-03-01T07:42:57;6.50;44.00
3770;DHT22;1900;48.890;9.190;2023-03-01T07:45:24;6.50;44.00
3770;DHT22;1900;48.890;9.190;2023-03-01T07:47:51;6.50;44.00
3770;DHT22;1900;48.890;9.190;2023-03-01T07:50:17;6.60;44.00
3770;DHT22;1900;48.890;9.190;2023-03-01T07:52:45;6.60;44.00
3770;DHT22;1900;48.890;9.190;2023-03-01T07:55:12;6.50;43.90
3770;DHT22;1900;48.890;9.190;2023-03-01T07:57:38;6.50;43.90
3770;DHT22;1900;48.890;9.190;2023-03-01T08:00:05;6.50;43.90
3770;DHT22;1900;48.890;9.190;2023-03-01T08:02:37;6.50;43.90
3770;DHT22;1900;48.890;9.190;2023-03-01T08:05:03;6.50;43.80
3770;DHT22;1900;48.890;9.190;2023-03-01T08:07:29;6.50;43.90
3770;DHT22;1900;48.890;9.190;2023-03-01T08:09:55;6.50;44.00
3770;DHT22;1900;48.890;9.190;2023-03-01T08:12:20;6.50;43.90
3770;DHT22;1900;48.890;9.190;2023-03-01T08:14:46;6.50;44.00
3770;DHT22;1900;48.890;9.190;2023-03-01T08:17:13;6.60;44.20
3770;DHT22;1900;48.890;9.190;2023-03-01T08:19:39;6.60;44.30
3770;DHT22;1900;48.890;9.190;2023-03-01T08:22:05;6.60;44.30
3770;DHT22;1900;48.890;9.190;2023-03-01T08:24:31;6.70;44.50
3770;DHT22;1900;48.890;9.190;2023-03-01T08:26:57;6.70;44.60
3770;DHT22;1900;48.890;9.190;2023-03-01T08:29:22;6.80;45.10
3770;DHT22;1900;48.890;9.190;2023-03-01T08:31:50;6.90;45.50
3770;DHT22;1900;48.890;9.190;2023-03-01T08:34:17;7.10;45.90
3770;DHT22;1900;48.890;9.190;2023-03-01T08:36:45;7.20;46.80
3770;DHT22;1900;48.890;9.190;2023-03-01T08:39:14;7.40;46.60
3770;DHT22;1900;48.890;9.190;2023-03-01T08:41:40;7.50;46.70
3770;DHT22;1900;48.890;9.190;2023-03-01T08:44:07;7.60;46.60
3770;DHT22;1900;48.890;9.190;2023-03-01T08:46:38;7.80;46.80
3770;DHT22;1900;48.890;9.190;2023-03-01T08:49:07;7.90;47.00
3770;DHT22;1900;48.890;9.190;2023-03-01T08:51:33;8.00;47.20
3770;DHT22;1900;48.890;9.190;2023-03-01T08:54:07;8.20;47.40
3770;DHT22;1900;48.890;9.190;2023-03-01T08:56:33;8.40;47.60
3770;DHT22;1900;48.890;9.190;2023-03-01T08:58:59;8.50;47.70
3770;DHT22;1900;48.890;9.190;2023-03-01T09:01:25;8.60;47.90
3770;DHT22;1900;48.890;9.190;2023-03-01T09:03:51;8.80;48.10
3770;DHT22;1900;48.890;9.190;2023-03-01T09:06:17;9.00;48.30
3770;DHT22;1900;48.890;9.190;2023-03-01T09:08:45;9.10;48.20
3770;DHT22;1900;48.890;9.190;2023-03-01T09:11:13;9.20;48.10
3770;DHT22;1900;48.890;9.190;2023-03-01T09:13:40;9.30;48.00
3770;DHT22;1900;48.890;9.190;2023-03-01T09:16:07;9.50;48.00
3770;DHT22;1900;48.890;9.190;2023-03-01T09:18:34;9.50;47.90
3770;DHT22;1900;48.890;9.190;2023-03-01T09:21:06;9.60;48.00
3770;DHT22;1900;48.890;9.190;2023-03-01T09:23:36;9.70;48.10
3770;DHT22;1900;48.890;9.190;2023-03-01T09:26:02;9.90;48.30
3770;DHT22;1900;48.890;9.190;2023-03-01T09:28:28;9.90;48.30
3770;DHT22;1900;48.890;9.190;2023-03-01T09:30:58;10.00;47.40
3770;DHT22;1900;48.890;9.190;2023-03-01T09:33:24;10.10;47.40
3770;DHT22;1900;48.890;9.190;2023-03-01T09:35:49;10.20;47.50
3770;DHT22;1900;48.890;9.190;2023-03-01T09:38:15;10.20;47.30
3770;DHT22;1900;48.890;9.190;2023-03-01T09:40:44;10.30;47.30
3770;DHT22;1900;48.890;9.190;2023-03-01T09:43:26;10.40;47.40
3770;DHT22;1900;48.890;9.190;2023-03-01T09:45:59;10.50;47.70
3770;DHT22;1900;48.890;9.190;2023-03-01T09:48:27;10.50;47.70
3770;DHT22;1900;48.890;9.190;2023-03-01T09:50:56;10.60;47.80
3770;DHT22;1900;48.890;9.190;2023-03-01T09:53:27;10.70;47.90
3770;DHT22;1900;48.890;9.190;2023-03-01T10:01:29;11.00;48.30
3770;DHT22;1900;48.890;9.190;2023-03-01T10:06:48;11.20;48.30
3770;DHT22;1900;48.890;9.190;2023-03-01T10:09:16;11.30;48.20
3770;DHT22;1900;48.890;9.190;2023-03-01T10:11:46;11.30;48.00
3770;DHT22;1900;48.890;9.190;2023-03-01T10:14:34;11.40;48.10
3770;DHT22;1900;48.890;9.190;2023-03-01T10:19:34;11.50;48.30
3770;DHT22;1900;48.890;9.190;2023-03-01T10:24:50;11.70;48.40
3770;DHT22;1900;48.890;9.190;2023-03-01T10:27:38;11.80;48.50
3770;DHT22;1900;48.890;9.190;2023-03-01T10:32:57;11.90;48.30
3770;DHT22;1900;48.890;9.190;2023-03-01T10:35:27;12.00;48.50
3770;DHT22;1900;48.890;9.190;2023-03-01T10:38:04;12.00;48.50
3770;DHT22;1900;48.890;9.190;2023-03-01T10:40:32;12.10;49.30
3770;DHT22;1900;48.890;9.190;2023-03-01T10:43:01;12.20;48.80
3770;DHT22;1900;48.890;9.190;2023-03-01T10:45:39;12.30;48.90
3770;DHT22;1900;48.890;9.190;2023-03-01T10:50:34;12.40;48.50
3770;DHT22;1900;48.890;9.190;2023-03-01T10:53:04;12.40;48.60
3770;DHT22;1900;48.890;9.190;2023-03-01T10:55:38;12.50;48.80
3770;DHT22;1900;48.890;9.190;2023-03-01T10:58:21;12.60;49.00
3770;DHT22;1900;48.890;9.190;2023-03-01T11:00:54;12.70;49.10
3770;DHT22;1900;48.890;9.190;2023-03-01T11:03:26;12.80;49.30
3770;DHT22;1900;48.890;9.190;2023-03-01T11:05:59;12.90;49.50
3770;DHT22;1900;48.890;9.190;2023-03-01T11:08:35;13.10;49.80
3770;DHT22;1900;48.890;9.190;2023-03-01T11:14:00;13.20;49.30
3770;DHT22;1900;48.890;9.190;2023-03-01T11:16:36;13.30;49.50
3770;DHT22;1900;48.890;9.190;2023-03-01T11:24:19;13.60;49.90
3770;DHT22;1900;48.890;9.190;2023-03-01T11:26:51;13.70;49.80
3770;DHT22;1900;48.890;9.190;2023-03-01T11:29:35;13.80;49.80
3770;DHT22;1900;48.890;9.190;2023-03-01T11:32:06;13.90;49.40
3770;DHT22;1900;48.890;9.190;2023-03-01T11:34:59;13.90;49.30
3770;DHT22;1900;48.890;9.190;2023-03-01T11:37:38;14.00;49.00
3770;DHT22;1900;48.890;9.190;2023-03-01T11:40:13;14.10;49.40
3770;DHT22;1900;48.890;9.190;2023-03-01T11:45:11;14.30;50.00
3770;DHT22;1900;48.890;9.190;2023-03-01T11:50:44;14.50;50.30
3770;DHT22;1900;48.890;9.190;2023-03-01T11:53:49;14.60;50.50
3770;DHT22;1900;48.890;9.190;2023-03-01T12:10:22;15.50;51.80
3770;DHT22;1900;48.890;9.190;2023-03-01T12:26:28;16.30;51.40
3770;DHT22;1900;48.890;9.190;2023-03-01T12:37:51;16.60;51.50
3770;DHT22;1900;48.890;9.190;2023-03-01T12:46:14;17.00;51.50
3770;DHT22;1900;48.890;9.190;2023-03-01T12:51:32;17.20;52.00
3770;DHT22;1900;48.890;9.190;2023-03-01T12:54:07;17.30;52.30
3770;DHT22;1900;48.890;9.190;2023-03-01T12:56:37;17.40;52.40
3770;DHT22;1900;48.890;9.190;2023-03-01T13:02:23;17.70;52.30
3770;DHT22;1900;48.890;9.190;2023-03-01T13:07:44;17.90;52.10
3770;DHT22;1900;48.890;9.190;2023-03-01T13:10:39;18.00;51.70
3770;DHT22;1900;48.890;9.190;2023-03-01T13:15:39;18.10;52.00
3770;DHT22;1900;48.890;9.190;2023-03-01T13:20:49;18.30;52.10
3770;DHT22;1900;48.890;9.190;2023-03-01T13:26:01;18.40;51.40
3770;DHT22;1900;48.890;9.190;2023-03-01T13:33:51;18.60;51.60
3770;DHT22;1900;48.890;9.190;2023-03-01T13:39:18;18.80;52.00
3770;DHT22;1900;48.890;9.190;2023-03-01T13:41:53;18.80;52.10
3770;DHT22;1900;48.890;9.190;2023-03-01T13:44:37;19.00;52.50
3770;DHT22;1900;48.890;9.190;2023-03-01T13:52:39;19.20;52.00
3770;DHT22;1900;48.890;9.190;2023-03-01T13:57:42;19.40;52.10
3770;DHT22;1900;48.890;9.190;2023-03-01T14:00:45;19.40;52.10
3770;DHT22;1900;48.890;9.190;2023-03-01T14:03:14;19.50;51.70
3770;DHT22;1900;48.890;9.190;2023-03-01T14:05:42;19.50;52.00
3770;DHT22;1900;48.890;9.190;2023-03-01T14:08:21;19.60;52.10
3770;DHT22;1900;48.890;9.190;2023-03-01T14:19:09;19.80;52.10
3770;DHT22;1900;48.890;9.190;2023-03-01T14:21:38;20.00;52.20
3770;DHT22;1900;48.890;9.190;2023-03-01T14:24:04;20.00;52.50
3770;DHT22;1900;48.890;9.190;2023-03-01T14:26:31;20.10;52.50
3770;DHT22;1900;48.890;9.190;2023-03-01T14:28:59;20.10;52.00
3770;DHT22;1900;48.890;9.190;2023-03-01T14:31:39;20.10;51.60
3770;DHT22;1900;48.890;9.190;2023-03-01T14:34:19;20.10;51.20
3770;DHT22;1900;48.890;9.190;2023-03-01T14:36:45;20.00;51.20
3770;DHT22;1900;48.890;9.190;2023-03-01T14:39:24;20.00;51.30
3770;DHT22;1900;48.890;9.190;2023-03-01T14:41:52;20.00;50.90
3770;DHT22;1900;48.890;9.190;2023-03-01T14:44:24;19.90;50.70
3770;DHT22;1900;48.890;9.190;2023-03-01T14:46:54;19.80;50.30
3770;DHT22;1900;48.890;9.190;2023-03-01T14:49:29;19.70;50.10
3770;DHT22;1900;48.890;9.190;2023-03-01T14:52:06;19.60;49.80
3770;DHT22;1900;48.890;9.190;2023-03-01T14:54:46;19.50;49.80
3770;DHT22;1900;48.890;9.190;2023-03-01T14:57:17;19.40;49.70
3770;DHT22;1900;48.890;9.190;2023-03-01T14:59:44;19.30;49.40
3770;DHT22;1900;48.890;9.190;2023-03-01T15:02:17;19.10;49.20
3770;DHT22;1900;48.890;9.190;2023-03-01T15:04:50;19.00;48.90
3770;DHT22;1900;48.890;9.190;2023-03-01T15:07:17;18.90;48.70
3770;DHT22;1900;48.890;9.190;2023-03-01T15:09:44;18.70;48.70
3770;DHT22;1900;48.890;9.190;2023-03-01T15:14:55;18.50;48.40
3770;DHT22;1900;48.890;9.190;2023-03-01T15:17:39;18.40;48.30
3770;DHT22;1900;48.890;9.190;2023-03-01T15:20:14;18.20;48.20
3770;DHT22;1900;48.890;9.190;2023-03-01T15:22:44;18.10;48.30
3770;DHT22;1900;48.890;9.190;2023-03-01T15:25:19;18.10;48.50
3770;DHT22;1900;48.890;9.190;2023-03-01T15:27:49;18.00;48.50
3770;DHT22;1900;48.890;9.190;2023-03-01T15:30:28;18.00;48.70
3770;DHT22;1900;48.890;9.190;2023-03-01T15:35:54;18.00;48.40
3770;DHT22;1900;48.890;9.190;2023-03-01T15:38:49;18.00;48.10
3770;DHT22;1900;48.890;9.190;2023-03-01T15:41:25;17.90;47.70
3770;DHT22;1900;48.890;9.190;2023-03-01T15:43:51;17.70;47.50
3770;DHT22;1900;48.890;9.190;2023-03-01T15:46:25;17.60;47.50
3770;DHT22;1900;48.890;9.190;2023-03-01T15:48:54;17.50;47.40
3770;DHT22;1900;48.890;9.190;2023-03-01T15:51:30;17.40;47.40
3770;DHT22;1900;48.890;9.190;2023-03-01T15:53:59;17.20;47.10
3770;DHT22;1900;48.890;9.190;2023-03-01T15:56:26;17.00;46.90
3770;DHT22;1900;48.890;9.190;2023-03-01T15:58:51;16.90;46.60
3770;DHT22;1900;48.890;9.190;2023-03-01T16:01:18;16.70;46.20
3770;DHT22;1900;48.890;9.190;2023-03-01T16:03:44;16.50;45.90
3770;DHT22;1900;48.890;9.190;2023-03-01T16:06:11;16.30;45.90
3770;DHT22;1900;48.890;9.190;2023-03-01T16:08:37;16.20;45.90
3770;DHT22;1900;48.890;9.190;2023-03-01T16:11:05;16.00;45.70
3770;DHT22;1900;48.890;9.190;2023-03-01T16:13:34;15.80;45.50
3770;DHT22;1900;48.890;9.190;2023-03-01T16:16:00;15.60;45.40
3770;DHT22;1900;48.890;9.190;2023-03-01T16:18:26;15.50;45.50
3770;DHT22;1900;48.890;9.190;2023-03-01T16:20:51;15.40;45.60
3770;DHT22;1900;48.890;9.190;2023-03-01T16:23:19;15.30;45.70
3770;DHT22;1900;48.890;9.190;2023-03-01T16:25:45;15.20;45.70
3770;DHT22;1900;48.890;9.190;2023-03-01T16:28:10;15.10;45.70
3770;DHT22;1900;48.890;9.190;2023-03-01T16:30:38;15.10;45.70
3770;DHT22;1900;48.890;9.190;2023-03-01T16:33:04;15.00;45.70
3770;DHT22;1900;48.890;9.190;2023-03-01T16:35:33;14.90;45.70
3770;DHT22;1900;48.890;9.190;2023-03-01T16:37:59;14.80;45.70
3770;DHT22;1900;48.890;9.190;2023-03-01T16:40:27;14.70;45.30
3770;DHT22;1900;48.890;9.190;2023-03-01T16:42:57;14.60;45.30
3770;DHT22;1900;48.890;9.190;2023-03-01T16:45:27;14.50;45.30
3770;DHT22;1900;48.890;9.190;2023-03-01T16:47:53;14.50;45.40
3770;DHT22;1900;48.890;9.190;2023-03-01T16:50:19;14.40;45.30
3770;DHT22;1900;48.890;9.190;2023-03-01T16:52:44;14.40;45.40
3770;DHT22;1900;48.890;9.190;2023-03-01T16:55:10;14.30;45.40
3770;DHT22;1900;48.890;9.190;2023-03-01T16:57:39;14.30;45.30
3770;DHT22;1900;48.890;9.190;2023-03-01T17:00:07;14.20;45.30
3770;DHT22;1900;48.890;9.190;2023-03-01T17:02:35;14.10;45.30
3770;DHT22;1900;48.890;9.190;2023-03-01T17:05:02;14.10;45.30
3770;DHT22;1900;48.890;9.190;2023-03-01T17:07:31;14.00;45.20
3770;DHT22;1900;48.890;9.190;2023-03-01T17:10:03;14.00;45.30
3770;DHT22;1900;48.890;9.190;2023-03-01T17:12:29;13.90;45.20
3770;DHT22;1900;48.890;9.190;2023-03-01T17:14:55;13.90;45.20
3770;DHT22;1900;48.890;9.190;2023-03-01T17:17:21;13.80;45.10
3770;DHT22;1900;48.890;9.190;2023-03-01T17:19:46;13.70;45.10
3770;DHT22;1900;48.890;9.190;2023-03-01T17:22:12;13.70;45.10
3770;DHT22;1900;48.890;9.190;2023-03-01T17:24:39;13.70;45.10
3770;DHT22;1900;48.890;9.190;2023-03-01T17:27:06;13.60;45.00
3770;DHT22;1900;48.890;9.190;2023-03-01T17:29:33;13.60;44.90
3770;DHT22;1900;48.890;9.190;2023-03-01T17:31:59;13.50;44.90
3770;DHT22;1900;48.890;9.190;2023-03-01T17:34:25;13.50;44.90
3770;DHT22;1900;48.890;9.190;2023-03-01T17:36:51;13.40;45.40
3770;DHT22;1900;48.890;9.190;2023-03-01T17:39:18;13.40;44.80
3770;DHT22;1900;48.890;9.190;2023-03-01T17:41:51;13.30;44.70
3770;DHT22;1900;48.890;9.190;2023-03-01T17:44:22;13.20;44.70
3770;DHT22;1900;48.890;9.190;2023-03-01T17:46:48;13.20;44.60
3770;DHT22;1900;48.890;9.190;2023-03-01T17:49:14;13.10;44.50
3770;DHT22;1900;48.890;9.190;2023-03-01T17:51:41;13.10;44.50
3770;DHT22;1900;48.890;9.190;2023-03-01T17:54:07;13.00;44.40
3770;DHT22;1900;48.890;9.190;2023-03-01T17:56:33;13.00;44.50
3770;DHT22;1900;48.890;9.190;2023-03-01T17:58:59;12.90;44.40
3770;DHT22;1900;48.890;9.190;2023-03-01T18:01:26;12.90;44.40
3770;DHT22;1900;48.890;9.190;2023-03-01T18:03:52;12.80;44.40
3770;DHT22;1900;48.890;9.190;2023-03-01T18:06:25;12.80;44.40
3770;DHT22;1900;48.890;9.190;2023-03-01T18:08:52;12.70;44.30
3770;DHT22;1900;48.890;9.190;2023-03-01T18:11:20;12.70;44.30
3770;DHT22;1900;48.890;9.190;2023-03-01T18:13:46;12.60;44.30
3770;DHT22;1900;48.890;9.190;2023-03-01T18:16:16;12.60;44.30
3770;DHT22;1900;48.890;9.190;2023-03-01T18:18:42;12.60;44.30
3770;DHT22;1900;48.890;9.190;2023-03-01T18:21:10;12.50;44.20
3770;DHT22;1900;48.890;9.190;2023-03-01T18:23:37;12.50;44.30
3770;DHT22;1900;48.890;9.190;2023-03-01T18:26:13;12.40;44.00
3770;DHT22;1900;48.890;9.190;2023-03-01T18:28:42;12.40;44.00
3770;DHT22;1900;48.890;9.190;2023-03-01T18:31:12;12.30;44.00